Greenfield, New York
Current Conditions -  °F | °C
As of 10:53 AM on Wednesday 26 Nov 2014 (Local Time) from KGFL Reporting Station
Overcast Overcast  
Wind Chill: 30°   Ceiling: 6500
Heat Index: 37°   Visibility: 10mi
Dew Point: 23°   Wind: 10mph
Humidity: 57%   Direction: 20°NNE
Pressure: 30.15"   Gusts: NA
Location:  43.1447°N, 73.8492°W
Report Text: KGFL 261553Z AUTO 02009KT 10SM OVC065 03/M05 A3015 RMK AO2 SLP218 T00281050
Loading
Personal Weather Stations






























Interactive Weather Map New forecast layout! Learn more

10-Day Weather Forecast

Advertisements
Track Severe Weather on mobile